Time;durP1;ratioP1;P1;durP2;ratioP2;P2;SDS_P1;SDS_P2;PMS_P1;PMS_P2;Temp;Humidity;BMP_temperature;BMP_pressure;BME280_temperature;BME280_humidity;BME280_pressure;Samples;Min_cycle;Max_cycle;Signal;HPM_P1;HPM_P2
2022/03/18 00:00:25;;;;;;;29.95;13.55;;;;;;;-4.25;64.01;102778.42;1965317;72;21039;-56
2022/03/18 00:02:58;;;;;;;26.02;12.60;;;;;;;-4.15;63.85;102783.66;1909656;75;21120;-56
2022/03/18 00:05:26;;;;;;;28.50;13.25;;;;;;;-4.10;63.73;102774.51;1911179;75;21053;-56
2022/03/18 00:07:55;;;;;;;24.92;11.65;;;;;;;-4.08;63.76;102776.38;1894942;76;21054;-57
2022/03/18 00:10:24;;;;;;;22.67;10.70;;;;;;;-4.06;63.74;102776.44;1894850;76;21026;-56
2022/03/18 00:12:53;;;;;;;22.67;11.40;;;;;;;-4.05;63.77;102780.80;1894765;76;21090;-58
2022/03/18 00:15:23;;;;;;;24.77;12.25;;;;;;;-4.02;63.69;102783.55;1894962;76;21635;-56
2022/03/18 00:17:52;;;;;;;24.65;11.80;;;;;;;-3.95;63.59;102780.46;1896938;75;21639;-61
2022/03/18 00:20:23;;;;;;;18.32;10.55;;;;;;;-3.94;63.58;102778.39;1910165;75;21517;-61
2022/03/18 00:22:52;;;;;;;19.73;10.90;;;;;;;-3.93;63.52;102778.88;1910271;75;21015;-60
2022/03/18 00:25:21;;;;;;;24.87;12.25;;;;;;;-3.95;63.61;102780.46;1910564;74;21502;-63
2022/03/18 00:27:50;;;;;;;24.52;11.88;;;;;;;-3.97;63.65;102776.92;1911789;75;21111;-64
2022/03/18 00:30:19;;;;;;;20.75;11.60;;;;;;;-3.98;63.62;102771.31;1859783;75;21099;-65
2022/03/18 00:32:53;;;;;;;14.87;7.40;;;;;;;-4.03;63.79;102770.17;1857827;77;21138;-62
2022/03/18 00:35:21;;;;;;;21.80;11.25;;;;;;;-4.07;63.64;102763.98;1857821;77;21537;-61
2022/03/18 00:37:50;;;;;;;26.23;11.70;;;;;;;-4.09;63.61;102766.00;1857586;77;21048;-61
2022/03/18 00:40:19;;;;;;;22.15;10.90;;;;;;;-4.09;63.61;102766.00;1875251;75;21028;-61
2022/03/18 00:42:48;;;;;;;22.15;11.73;;;;;;;-4.10;63.67;102766.79;1911690;75;21115;-62
2022/03/18 00:45:16;;;;;;;19.37;10.45;;;;;;;-4.13;63.72;102765.33;1909866;75;21020;-61
2022/03/18 00:53:18;;;;;;;17.25;7.95;;;;;;;-4.19;64.01;102767.58;1911480;75;21503;-61
2022/03/18 00:55:47;;;;;;;27.13;11.65;;;;;;;-4.16;63.96;102766.47;1899159;75;21047;-59
2022/03/18 00:58:16;;;;;;;22.80;11.30;;;;;;;-4.16;63.92;102768.63;1863237;76;21050;-59
2022/03/18 01:00:44;;;;;;;20.02;10.65;;;;;;;-4.19;64.13;102774.02;1932159;74;21044;-60
2022/03/18 01:03:15;;;;;;;25.08;11.80;;;;;;;-4.18;64.24;102770.66;1942546;73;21115;-58
2022/03/18 01:05:44;;;;;;;25.52;11.05;;;;;;;-4.19;64.25;102768.87;1941863;73;21168;-60
2022/03/18 01:08:15;;;;;;;21.52;11.63;;;;;;;-4.19;64.25;102768.87;1942183;73;21601;-61
2022/03/18 01:11:03;;;;;;;24.18;13.05;;;;;;;-4.19;64.30;102773.60;1908343;75;21271;-57
2022/03/18 01:13:32;;;;;;;23.07;12.45;;;;;;;-4.19;64.41;102771.44;1908153;75;21043;-57
2022/03/18 01:16:01;;;;;;;19.07;10.13;;;;;;;-4.17;64.42;102769.83;1908574;75;21155;-57
2022/03/18 01:18:29;;;;;;;23.02;12.23;;;;;;;-4.15;64.47;102768.22;1908685;75;21533;-56
2022/03/18 01:20:58;;;;;;;22.75;11.93;;;;;;;-4.16;64.51;102773.78;1908719;75;21144;-56
2022/03/18 01:23:27;;;;;;;21.93;10.43;;;;;;;-4.16;64.72;102774.19;1908642;75;21055;-57
2022/03/18 01:25:56;;;;;;;22.62;11.53;;;;;;;-4.17;64.69;102777.55;1908464;75;21151;-57
2022/03/18 01:28:27;;;;;;;20.52;9.58;;;;;;;-4.14;64.48;102784.16;1902769;75;21122;-55
2022/03/18 01:30:56;;;;;;;29.42;13.22;;;;;;;-4.10;64.35;102779.66;1874494;76;21051;-54
2022/03/18 01:33:25;;;;;;;21.90;11.75;;;;;;;-4.09;64.38;102777.58;1874506;76;21058;-56
2022/03/18 01:35:53;;;;;;;26.02;13.40;;;;;;;-4.12;64.56;102783.42;1874459;76;21501;-58
2022/03/18 01:38:22;;;;;;;19.52;10.95;;;;;;;-4.12;64.53;102783.84;1874536;76;21043;-60
2022/03/18 01:40:51;;;;;;;23.65;11.05;;;;;;;-4.12;64.53;102783.84;1874475;76;21110;-59
2022/03/18 01:43:20;;;;;;;27.00;12.68;;;;;;;-4.09;64.65;102790.45;1874659;76;21477;-59
2022/03/18 01:45:51;;;;;;;24.75;12.05;;;;;;;-4.07;64.70;102792.28;1874504;76;21055;-58
2022/03/18 01:48:19;;;;;;;20.12;10.78;;;;;;;-4.03;64.58;102793.34;1874649;76;21042;-58
2022/03/18 01:50:48;;;;;;;24.00;11.08;;;;;;;-4.10;64.71;102789.95;1874499;76;21082;-57
2022/03/18 01:53:17;;;;;;;19.25;10.05;;;;;;;-4.14;64.80;102790.59;1874449;76;21231;-58
2022/03/18 01:55:46;;;;;;;24.43;11.97;;;;;;;-4.11;64.83;102789.07;1874729;76;21544;-57
2022/03/18 01:58:15;;;;;;;24.37;11.20;;;;;;;-4.16;64.97;102790.91;1874516;76;21109;-57
2022/03/18 02:00:43;;;;;;;22.35;11.63;;;;;;;-4.15;64.94;102794.86;1874487;76;21066;-57
2022/03/18 02:03:12;;;;;;;22.42;11.33;;;;;;;-4.15;65.09;102793.95;1885875;74;21040;-56
2022/03/18 02:05:43;;;;;;;20.77;11.88;;;;;;;-4.15;65.05;102796.52;1908408;75;21035;-57
2022/03/18 02:08:13;;;;;;;24.57;11.30;;;;;;;-4.09;65.00;102804.19;1908112;75;21038;-57
2022/03/18 02:10:43;;;;;;;22.05;11.57;;;;;;;-4.08;64.96;102812.41;1855588;77;21068;-57
2022/03/18 02:13:12;;;;;;;7.03;4.80;;;;;;;-4.10;65.04;102806.26;1858000;77;21057;-57
2022/03/18 02:15:41;;;;;;;10.58;6.08;;;;;;;-4.09;64.91;102809.74;1857884;76;21154;-57
2022/03/18 02:18:10;;;;;;;21.82;9.85;;;;;;;-4.10;64.83;102809.24;1857711;76;21071;-57
2022/03/18 02:20:39;;;;;;;15.00;8.75;;;;;;;-4.08;64.68;102811.12;1861214;76;21036;-57
2022/03/18 02:23:08;;;;;;;25.00;10.88;;;;;;;-4.13;64.75;102807.78;1896488;76;21547;-56
2022/03/18 02:25:37;;;;;;;22.25;11.15;;;;;;;-4.15;64.84;102804.23;1883086;76;21056;-57
2022/03/18 02:28:05;;;;;;;23.80;9.93;;;;;;;-4.19;64.96;102811.31;1857605;77;21029;-56
2022/03/18 02:30:35;;;;;;;18.30;8.33;;;;;;;-4.23;65.17;102806.81;1857416;77;21084;-57
2022/03/18 02:33:04;;;;;;;22.22;11.12;;;;;;;-4.27;65.12;102810.49;1883649;74;21610;-56
2022/03/18 02:35:33;;;;;;;18.02;9.23;;;;;;;-4.28;65.27;102814.26;1868471;76;21047;-56
2022/03/18 02:38:04;;;;;;;24.05;11.25;;;;;;;-4.22;65.25;102812.42;1864525;77;21475;-56
2022/03/18 02:40:32;;;;;;;23.45;10.68;;;;;;;-4.28;65.40;102813.88;1864652;77;21090;-57
2022/03/18 02:43:01;;;;;;;19.57;9.80;;;;;;;-4.37;65.72;102823.66;1864332;76;21036;-58
2022/03/18 02:45:31;;;;;;;21.25;10.70;;;;;;;-4.30;65.57;102820.63;1892640;72;21137;-59
2022/03/18 02:48:00;;;;;;;21.68;10.90;;;;;;;-4.29;65.60;102822.39;1921602;75;21094;-59
2022/03/18 02:50:28;;;;;;;21.93;10.30;;;;;;;-4.32;65.68;102823.49;1921678;75;21542;-61
2022/03/18 02:52:57;;;;;;;19.10;9.73;;;;;;;-4.32;65.86;102826.47;1891634;76;21040;-59
2022/03/18 02:55:26;;;;;;;12.37;7.50;;;;;;;-4.32;66.01;102827.34;1891745;76;21582;-59
2022/03/18 02:57:55;;;;;;;17.85;9.00;;;;;;;-4.33;65.96;102824.31;1891719;75;21528;-59
2022/03/18 03:00:25;;;;;;;11.97;7.33;;;;;;;-4.31;66.00;102825.00;1891682;76;21075;-58
2022/03/18 03:02:54;;;;;;;20.32;10.95;;;;;;;-4.35;66.36;102825.00;1894946;75;21110;-60
2022/03/18 03:08:09;;;;;;;19.62;9.73;;;;;;;-4.35;66.38;102824.62;1921619;75;21035;-59
2022/03/18 03:10:38;;;;;;;17.10;8.33;;;;;;;-4.33;66.23;102825.59;1921547;75;21144;-59
2022/03/18 03:13:13;;;;;;;13.83;6.95;;;;;;;-4.31;66.04;102826.56;1921550;75;21010;-58
2022/03/18 03:15:40;;;;;;;15.55;7.62;;;;;;;-4.33;66.01;102826.88;1920510;74;21124;-58
2022/03/18 03:18:08;;;;;;;20.30;10.05;;;;;;;-4.39;66.50;102829.13;1921522;75;21038;-59
2022/03/18 03:20:37;;;;;;;18.15;8.80;;;;;;;-4.42;66.46;102830.23;1921671;75;21034;-59
2022/03/18 03:23:05;;;;;;;17.75;8.60;;;;;;;-4.46;67.12;102833.44;1921643;75;21011;-58
2022/03/18 03:25:34;;;;;;;15.10;7.92;;;;;;;-4.42;66.63;102834.50;1921649;75;21164;-57
2022/03/18 03:28:03;;;;;;;16.48;9.15;;;;;;;-4.33;66.17;102835.89;1921722;75;21085;-57
2022/03/18 03:30:32;;;;;;;20.37;9.38;;;;;;;-4.35;66.15;102840.06;1921475;75;20999;-57
2022/03/18 03:33:01;;;;;;;16.10;8.65;;;;;;;-4.30;66.01;102838.64;1921588;75;21014;-58
2022/03/18 03:35:29;;;;;;;22.62;10.00;;;;;;;-4.27;65.94;102832.77;1921844;75;21107;-60
2022/03/18 03:37:58;;;;;;;17.60;11.28;;;;;;;-4.25;65.83;102832.86;1921576;75;21058;-57
2022/03/18 03:40:27;;;;;;;16.48;8.93;;;;;;;-4.27;65.93;102836.22;1905642;75;21470;-58
2022/03/18 03:42:56;;;;;;;19.07;9.65;;;;;;;-4.20;65.89;102828.86;1891733;75;21052;-58
2022/03/18 03:45:25;;;;;;;13.08;7.78;;;;;;;-4.23;65.80;102833.83;1891540;75;21139;-59
2022/03/18 03:47:54;;;;;;;19.37;8.90;;;;;;;-4.30;66.19;102833.87;1891161;76;21064;-59
2022/03/18 03:50:23;;;;;;;11.40;7.40;;;;;;;-4.31;65.98;102838.14;1891129;76;21094;-59
2022/03/18 03:52:51;;;;;;;15.20;6.90;;;;;;;-4.32;66.08;102841.50;1891065;75;21024;-59
2022/03/18 03:55:20;;;;;;;22.65;9.63;;;;;;;-4.29;66.01;102843.37;1891009;76;21032;-59
2022/03/18 03:57:49;;;;;;;19.37;10.23;;;;;;;-4.25;65.88;102843.14;1891008;76;21075;-59
2022/03/18 04:00:18;;;;;;;18.17;9.50;;;;;;;-4.24;65.87;102848.76;1891047;76;21467;-58
2022/03/18 04:02:47;;;;;;;16.60;9.08;;;;;;;-4.24;65.99;102848.38;1891057;76;21016;-58
2022/03/18 04:05:16;;;;;;;14.87;8.93;;;;;;;-4.19;65.89;102852.48;1891050;76;21470;-57
2022/03/18 04:07:45;;;;;;;16.23;9.10;;;;;;;-4.14;65.87;102847.19;1891115;76;21138;-58
2022/03/18 04:10:14;;;;;;;23.30;9.25;;;;;;;-4.09;65.78;102851.78;1890876;76;21483;-58
2022/03/18 04:12:44;;;;;;;18.07;9.98;;;;;;;-4.05;65.68;102855.41;1891097;76;21577;-58
2022/03/18 04:15:12;;;;;;;17.12;7.62;;;;;;;-4.00;65.56;102853.98;1891255;76;21532;-58
2022/03/18 04:17:47;;;;;;;15.15;8.13;;;;;;;-3.94;65.37;102849.16;1891141;75;21060;-58
2022/03/18 04:20:23;;;;;;;23.52;10.65;;;;;;;-3.93;65.42;102855.19;1890999;76;21044;-57
2022/03/18 04:22:53;;;;;;;12.85;8.00;;;;;;;-3.86;65.31;102866.71;1890918;76;21524;-57
2022/03/18 04:25:21;;;;;;;19.62;8.80;;;;;;;-3.80;65.41;102861.89;1891215;76;21040;-60
2022/03/18 04:27:50;;;;;;;20.02;9.83;;;;;;;-3.78;65.42;102865.42;1891236;75;21549;-60
2022/03/18 04:30:19;;;;;;;17.75;8.50;;;;;;;-3.73;65.44;102866.56;1891181;76;21122;-60
2022/03/18 04:32:48;;;;;;;17.95;9.43;;;;;;;-3.71;65.44;102867.16;1891151;75;21072;-58
2022/03/18 04:35:16;;;;;;;20.70;9.78;;;;;;;-3.66;65.43;102860.94;1891008;76;21072;-59
2022/03/18 04:37:45;;;;;;;19.05;10.38;;;;;;;-3.66;65.43;102860.94;1891135;76;21118;-58
2022/03/18 04:40:15;;;;;;;18.15;9.38;;;;;;;-3.56;65.72;102865.80;1901857;75;21023;-58
2022/03/18 04:42:45;;;;;;;21.52;9.90;;;;;;;-3.56;65.72;102865.80;1915074;75;21014;-58
2022/03/18 04:45:16;;;;;;;18.92;8.68;;;;;;;-3.57;65.71;102865.30;1914989;75;21421;-58
2022/03/18 04:47:45;;;;;;;22.62;10.58;;;;;;;-3.57;65.92;102864.01;1914918;75;21133;-58
2022/03/18 04:50:13;;;;;;;16.37;9.13;;;;;;;-3.57;65.97;102866.58;1915001;75;21132;-58
2022/03/18 04:52:42;;;;;;;17.10;8.63;;;;;;;-3.52;65.91;102875.45;1915145;75;21031;-58
2022/03/18 04:55:11;;;;;;;12.80;6.62;;;;;;;-3.40;65.74;102877.77;1914997;75;21140;-58
2022/03/18 04:57:40;;;;;;;24.10;10.55;;;;;;;-3.31;65.60;102883.81;1914996;75;21465;-57
2022/03/18 05:00:10;;;;;;;16.82;8.05;;;;;;;-3.31;65.42;102879.95;1915072;75;21058;-59
2022/03/18 05:02:39;;;;;;;17.95;9.70;;;;;;;-3.30;65.37;102881.73;1914939;74;21038;-58
2022/03/18 05:05:10;;;;;;;18.42;9.38;;;;;;;-3.30;65.54;102890.34;1914978;75;21070;-58
2022/03/18 05:07:41;;;;;;;19.52;9.18;;;;;;;-3.30;65.85;102885.59;1914996;75;21011;-58
2022/03/18 05:10:10;;;;;;;10.63;5.25;;;;;;;-3.26;65.84;102886.23;1915175;75;21550;-58
2022/03/18 05:12:39;;;;;;;18.87;8.85;;;;;;;-3.18;65.82;102890.08;1915048;75;21058;-56
2022/03/18 05:15:09;;;;;;;15.48;8.53;;;;;;;-3.19;65.93;102896.05;1915229;75;21062;-58
2022/03/18 05:17:39;;;;;;;13.53;6.00;;;;;;;-3.15;65.97;102891.53;1915104;75;21015;-58
2022/03/18 05:20:11;;;;;;;14.87;6.75;;;;;;;-3.05;65.75;102901.03;1915003;75;21550;-58
2022/03/18 05:22:39;;;;;;;19.15;9.80;;;;;;;-2.96;65.64;102895.06;1914926;75;21034;-58
2022/03/18 05:25:08;;;;;;;12.05;6.90;;;;;;;-2.91;65.54;102895.77;1914872;75;21077;-61
2022/03/18 05:27:40;;;;;;;14.98;7.83;;;;;;;-2.89;65.46;102901.42;1914962;75;21129;-59
2022/03/18 05:30:14;;;;;;;11.78;6.08;;;;;;;-2.90;65.48;102904.39;1914972;75;21551;-60
2022/03/18 05:32:43;;;;;;;16.30;7.87;;;;;;;-2.89;65.46;102913.91;1914178;75;21445;-59
2022/03/18 05:35:13;;;;;;;18.95;9.58;;;;;;;-2.87;65.44;102912.28;1915131;75;21508;-59
2022/03/18 05:37:43;;;;;;;16.52;8.38;;;;;;;-2.79;65.43;102910.09;1914861;75;21626;-58
2022/03/18 05:40:12;;;;;;;19.80;8.93;;;;;;;-2.78;65.55;102919.20;1904742;75;21040;-59
2022/03/18 05:42:41;;;;;;;14.63;8.40;;;;;;;-2.78;65.59;102920.91;1891060;75;21068;-58
2022/03/18 05:45:10;;;;;;;20.90;8.78;;;;;;;-2.83;65.84;102923.23;1891132;76;21016;-59
2022/03/18 05:47:39;;;;;;;16.85;7.83;;;;;;;-2.86;65.96;102926.93;1891076;75;21088;-58
2022/03/18 05:50:09;;;;;;;15.03;7.25;;;;;;;-2.79;65.85;102926.44;1891034;76;21032;-59
2022/03/18 05:52:40;;;;;;;14.20;7.58;;;;;;;-2.72;65.81;102928.53;1891222;76;21036;-58
2022/03/18 05:55:09;;;;;;;21.05;9.58;;;;;;;-2.62;65.69;102938.02;1891221;76;21122;-58
2022/03/18 05:57:38;;;;;;;17.15;8.80;;;;;;;-2.53;65.60;102930.36;1891233;75;21040;-58
2022/03/18 06:00:08;;;;;;;15.53;7.40;;;;;;;-2.49;65.57;102933.98;1891103;76;21126;-59
2022/03/18 06:02:44;;;;;;;16.35;9.50;;;;;;;-2.49;65.63;102937.84;1890983;76;21100;-59
2022/03/18 06:05:13;;;;;;;21.85;9.53;;;;;;;-2.40;65.29;102937.02;1891126;76;21200;-58
2022/03/18 06:07:41;;;;;;;13.98;6.55;;;;;;;-2.40;65.29;102937.02;1891330;76;21020;-59
2022/03/18 06:12:57;;;;;;;24.32;13.28;;;;;;;-2.27;65.39;102944.05;1891040;76;21025;-59
2022/03/18 06:15:25;;;;;;;25.95;11.40;;;;;;;-2.27;65.38;102950.50;1891069;76;21173;-58
2022/03/18 06:17:55;;;;;;;25.82;14.18;;;;;;;-2.21;65.26;102943.08;1891124;76;21036;-59
2022/03/18 06:20:24;;;;;;;16.15;9.63;;;;;;;-2.14;65.17;102951.57;1891189;75;21150;-59
2022/03/18 06:22:53;;;;;;;27.98;15.90;;;;;;;-2.08;65.09;102955.77;1891083;76;21091;-59
2022/03/18 06:25:23;;;;;;;26.12;15.63;;;;;;;-2.02;65.11;102957.34;1891101;76;21142;-58
2022/03/18 06:27:52;;;;;;;23.20;12.03;;;;;;;-1.96;65.00;102958.91;1891077;76;21008;-59
2022/03/18 06:30:20;;;;;;;16.10;8.05;;;;;;;-1.97;64.92;102959.74;1891188;76;21048;-59
2022/03/18 06:32:49;;;;;;;17.80;10.05;;;;;;;-2.07;65.00;102949.77;1891117;76;21126;-58
2022/03/18 06:35:18;;;;;;;30.35;16.23;;;;;;;-2.01;65.02;102953.96;1891084;76;21064;-58
2022/03/18 06:37:46;;;;;;;21.45;10.95;;;;;;;-1.89;65.00;102959.23;1891107;76;21181;-59
2022/03/18 06:40:15;;;;;;;27.67;13.75;;;;;;;-1.84;64.93;102958.63;1901955;75;20999;-59
2022/03/18 06:42:44;;;;;;;28.47;15.05;;;;;;;-1.74;64.84;102957.36;1914922;75;21079;-59
2022/03/18 06:45:14;;;;;;;26.60;12.47;;;;;;;-1.63;64.76;102961.33;1915095;75;21160;-58
2022/03/18 06:47:43;;;;;;;19.55;10.55;;;;;;;-1.52;64.67;102957.09;1914817;74;21589;-58
2022/03/18 06:50:11;;;;;;;13.53;7.50;;;;;;;-1.41;64.61;102950.70;1915285;75;21043;-59
2022/03/18 06:52:40;;;;;;;20.35;7.28;;;;;;;-1.33;64.50;102953.22;1915215;75;21144;-59
2022/03/18 06:55:10;;;;;;;14.33;7.80;;;;;;;-1.22;64.41;102948.54;1915486;75;21006;-59
2022/03/18 06:57:38;;;;;;;15.70;8.15;;;;;;;-0.95;64.22;102954.06;1915228;75;21030;-59
2022/03/18 07:00:08;;;;;;;14.93;7.92;;;;;;;-0.71;63.85;102958.53;1915271;75;21100;-59
2022/03/18 07:02:37;;;;;;;23.35;11.05;;;;;;;-0.53;63.47;102951.97;1915359;75;21097;-59
2022/03/18 07:05:07;;;;;;;10.90;6.70;;;;;;;-0.60;63.29;102954.28;1915136;75;21035;-58
2022/03/18 07:07:35;;;;;;;16.10;8.63;;;;;;;-0.63;63.47;102950.67;1915252;75;21184;-59
2022/03/18 07:10:05;;;;;;;22.50;12.35;;;;;;;-0.61;63.54;102953.83;1915268;75;21132;-59
2022/03/18 07:12:33;;;;;;;18.98;9.48;;;;;;;-0.56;63.57;102954.42;1915268;75;21093;-59
2022/03/18 07:15:02;;;;;;;20.12;9.75;;;;;;;-0.45;63.51;102954.46;1915265;75;21071;-59
2022/03/18 07:20:18;;;;;;;19.98;10.30;;;;;;;-0.31;63.45;102952.05;1915220;75;21027;-60
2022/03/18 07:22:47;;;;;;;20.00;10.20;;;;;;;-0.25;63.33;102950.98;1915250;75;21092;-60
2022/03/18 07:25:15;;;;;;;20.60;10.13;;;;;;;-0.29;63.22;102948.23;1915175;75;21063;-59
2022/03/18 07:27:44;;;;;;;12.82;6.28;;;;;;;-0.32;63.19;102959.73;1915453;75;21042;-59
2022/03/18 07:30:14;;;;;;;14.70;7.72;;;;;;;-0.34;63.24;102954.91;1915148;75;21034;-60
2022/03/18 07:32:42;;;;;;;16.05;6.92;;;;;;;-0.32;63.30;102954.56;1915308;75;21015;-59
2022/03/18 07:35:11;;;;;;;16.65;9.75;;;;;;;-0.24;63.19;102950.18;1915242;75;21015;-59
2022/03/18 07:37:40;;;;;;;11.40;7.15;;;;;;;-0.17;63.07;102955.17;1915372;75;21047;-59
2022/03/18 07:40:11;;;;;;;11.08;5.72;;;;;;;-0.20;62.80;102958.96;1905468;75;21051;-59
2022/03/18 07:42:55;;;;;;;16.02;8.85;;;;;;;-0.25;62.79;102959.17;1891292;76;21035;-60
2022/03/18 07:45:27;;;;;;;15.23;8.35;;;;;;;-0.29;62.72;102958.16;1891488;76;21152;-59
2022/03/18 07:48:02;;;;;;;11.48;7.15;;;;;;;-0.24;62.67;102956.66;1891722;76;21525;-60
2022/03/18 07:50:32;;;;;;;19.73;8.45;;;;;;;-0.22;62.52;102958.02;1891793;75;21072;-59
2022/03/18 07:53:04;;;;;;;12.30;7.83;;;;;;;-0.10;62.37;102953.73;1891603;76;21474;-60
2022/03/18 07:55:34;;;;;;;13.20;7.80;;;;;;;-0.04;62.20;102956.17;1891628;75;21088;-59
2022/03/18 07:58:03;;;;;;;14.87;8.43;;;;;;;-0.06;62.10;102955.20;1891681;76;21016;-59
2022/03/18 08:00:32;;;;;;;15.70;7.87;;;;;;;-0.07;61.93;102958.63;1891836;76;21040;-60
2022/03/18 08:03:01;;;;;;;13.72;8.13;;;;;;;-0.08;61.96;102958.56;1900211;75;21028;-58
2022/03/18 08:05:31;;;;;;;11.90;6.60;;;;;;;-0.05;62.08;102962.16;1906004;75;21118;-59
2022/03/18 08:08:00;;;;;;;13.05;7.35;;;;;;;-0.01;62.10;102961.45;1894597;75;21418;-61
2022/03/18 08:10:29;;;;;;;15.55;8.18;;;;;;;0.08;62.12;102960.95;1921739;75;21007;-59
2022/03/18 08:12:59;;;;;;;12.85;8.03;;;;;;;0.16;61.84;102963.84;1921590;75;21464;-59
2022/03/18 08:15:28;;;;;;;7.87;4.70;;;;;;;0.16;61.72;102959.53;1921708;75;21406;-60
2022/03/18 08:17:58;;;;;;;11.20;6.00;;;;;;;0.11;61.55;102963.67;1921655;75;21104;-61
2022/03/18 08:20:27;;;;;;;13.88;6.67;;;;;;;0.09;61.65;102959.23;1921787;75;21139;-59
2022/03/18 08:25:27;;;;;;;10.35;6.35;;;;;;;0.15;61.55;102965.55;1921767;73;21096;-58
2022/03/18 08:27:56;;;;;;;13.50;8.63;;;;;;;0.16;61.42;102962.54;1922259;73;21547;-58
2022/03/18 08:30:27;;;;;;;14.53;7.97;;;;;;;0.16;61.51;102962.13;1905934;75;21109;-58
2022/03/18 08:32:57;;;;;;;6.75;4.17;;;;;;;0.19;61.55;102966.56;1936360;74;21015;-58
2022/03/18 08:35:28;;;;;;;8.23;5.30;;;;;;;0.24;61.57;102962.45;1939502;74;21097;-59
2022/03/18 08:38:03;;;;;;;12.37;6.67;;;;;;;0.30;61.48;102962.67;1921045;74;21461;-57
2022/03/18 08:40:33;;;;;;;18.77;8.90;;;;;;;0.23;61.13;102964.55;1937634;74;21099;-55
2022/03/18 08:43:04;;;;;;;19.87;9.75;;;;;;;0.27;61.29;102961.25;1922457;73;21150;-56
2022/03/18 08:45:34;;;;;;;13.48;7.60;;;;;;;0.33;61.22;102965.40;1905821;75;21043;-55
2022/03/18 08:48:03;;;;;;;13.18;7.05;;;;;;;0.33;61.05;102967.98;1905952;75;21045;-55
2022/03/18 08:50:32;;;;;;;8.68;5.95;;;;;;;0.36;60.88;102960.31;1918884;74;21611;-57
2022/03/18 08:53:04;;;;;;;10.05;5.70;;;;;;;0.40;60.77;102970.39;1935896;74;21156;-57
2022/03/18 08:55:32;;;;;;;13.75;5.70;;;;;;;0.43;60.70;102967.05;1930521;73;21098;-58
2022/03/18 08:58:01;;;;;;;13.15;6.53;;;;;;;0.45;60.66;102970.58;1921741;74;21078;-60
2022/03/18 09:00:29;;;;;;;8.35;3.87;;;;;;;0.42;60.48;102963.97;1920894;74;21102;-60
2022/03/18 09:02:58;;;;;;;11.97;5.30;;;;;;;0.36;60.67;102966.80;1924702;74;21604;-61
2022/03/18 09:05:27;;;;;;;19.75;8.55;;;;;;;0.37;60.73;102965.98;1925894;73;21093;-59
2022/03/18 09:07:55;;;;;;;18.57;8.18;;;;;;;0.36;60.94;102979.75;1922052;73;21013;-57
2022/03/18 09:10:24;;;;;;;22.10;11.65;;;;;;;0.50;61.04;102975.50;1924800;74;21101;-58
2022/03/18 09:13:02;;;;;;;18.62;7.00;;;;;;;0.57;60.90;102977.51;1927756;74;21021;-56
2022/03/18 09:15:30;;;;;;;9.90;5.60;;;;;;;0.62;60.88;102981.17;1923576;73;20993;-57
2022/03/18 09:17:59;;;;;;;17.07;6.92;;;;;;;0.63;60.78;102978.16;1923239;74;21017;-57
2022/03/18 09:20:27;;;;;;;10.93;6.47;;;;;;;0.56;60.74;102983.54;1922544;74;21032;-58
2022/03/18 09:22:56;;;;;;;17.55;9.65;;;;;;;0.54;60.81;102978.71;1924266;74;21436;-57
2022/03/18 09:25:27;;;;;;;13.05;6.78;;;;;;;0.56;60.81;102974.47;1929454;74;21150;-55
2022/03/18 09:27:58;;;;;;;18.17;8.43;;;;;;;0.75;60.87;102975.61;1911601;74;21069;-59
2022/03/18 09:30:27;;;;;;;20.40;9.38;;;;;;;0.95;60.68;102980.66;1915447;75;21032;-59
2022/03/18 09:32:56;;;;;;;19.48;6.20;;;;;;;1.01;60.51;102982.17;1915456;75;21046;-57
2022/03/18 09:35:25;;;;;;;13.55;7.37;;;;;;;1.01;60.53;102983.89;1915259;75;21035;-57
2022/03/18 09:37:54;;;;;;;12.28;6.40;;;;;;;0.92;60.33;102983.14;1915292;75;21465;-56
2022/03/18 09:40:23;;;;;;;12.88;6.15;;;;;;;0.76;60.25;102979.11;1915288;75;21480;-55
2022/03/18 09:43:00;;;;;;;13.28;7.08;;;;;;;0.67;60.54;102984.83;1915290;75;21593;-57
2022/03/18 09:45:32;;;;;;;16.48;7.10;;;;;;;0.61;60.70;102982.02;1914599;75;21062;-56
2022/03/18 09:48:02;;;;;;;8.03;4.53;;;;;;;0.49;60.92;102989.31;1915391;75;21088;-57
2022/03/18 09:50:31;;;;;;;11.53;4.92;;;;;;;0.36;61.14;102990.54;1915389;75;21806;-57
2022/03/18 09:53:01;;;;;;;13.00;7.17;;;;;;;0.30;61.17;102984.70;1915228;75;21070;-58
2022/03/18 09:55:31;;;;;;;12.50;6.37;;;;;;;0.17;61.24;102986.34;1915287;75;21500;-55
2022/03/18 09:58:00;;;;;;;10.10;6.03;;;;;;;0.16;61.44;102989.74;1915375;75;21054;-55
2022/03/18 10:00:50;;;;;;;4.47;3.45;;;;;;;0.19;61.56;102985.99;1915297;75;21046;-60
2022/03/18 10:03:20;;;;;;;5.28;3.67;;;;;;;0.26;61.58;102985.80;1849253;77;21141;-58
2022/03/18 10:05:52;;;;;;;11.78;4.53;;;;;;;0.44;61.58;102985.65;1849465;77;21134;-59
2022/03/18 10:08:21;;;;;;;15.72;7.62;;;;;;;0.52;61.43;102990.31;1846174;77;21525;-58
2022/03/18 10:10:51;;;;;;;15.23;7.03;;;;;;;0.51;61.39;102983.77;1849367;77;21131;-56
2022/03/18 10:13:20;;;;;;;14.35;7.33;;;;;;;0.59;61.49;102986.27;1849362;77;21171;-57
2022/03/18 10:15:49;;;;;;;8.80;4.15;;;;;;;0.58;61.31;102981.89;1848448;77;21110;-60
2022/03/18 10:18:18;;;;;;;13.43;6.80;;;;;;;0.65;61.36;102982.59;1849345;77;21055;-58
2022/03/18 10:20:46;;;;;;;11.63;6.45;;;;;;;0.64;61.08;102984.70;1820918;77;21149;-60
2022/03/18 10:23:21;;;;;;;11.43;5.15;;;;;;;0.60;61.26;102991.89;1798664;80;21163;-62
2022/03/18 10:25:55;;;;;;;10.25;6.85;;;;;;;0.63;61.14;102988.14;1798668;80;21240;-60
2022/03/18 10:28:41;;;;;;;15.60;7.78;;;;;;;0.72;61.14;102992.37;1798464;80;21060;-61
2022/03/18 10:31:15;;;;;;;8.70;4.80;;;;;;;0.91;61.01;102995.66;1847780;77;21060;-61
2022/03/18 10:37:21;;;;;;;17.73;7.25;;;;;;;1.23;60.43;102990.32;1849164;77;21121;-58
2022/03/18 10:39:53;;;;;;;8.50;5.00;;;;;;;1.31;60.29;102991.49;1880868;76;21132;-58
2022/03/18 10:42:23;;;;;;;10.45;4.97;;;;;;;1.43;60.02;102996.22;1881145;76;21441;-57
2022/03/18 10:45:00;;;;;;;14.23;6.75;;;;;;;1.45;59.90;102998.88;1889599;76;21069;-57
2022/03/18 10:47:42;;;;;;;14.30;7.45;;;;;;;1.49;59.83;102996.42;1889525;76;21464;-58
2022/03/18 10:50:14;;;;;;;15.03;7.40;;;;;;;1.54;59.68;102992.27;1889644;76;21073;-57
2022/03/18 10:52:57;;;;;;;14.40;6.75;;;;;;;1.67;59.80;102995.30;1889558;76;21038;-60
2022/03/18 10:55:29;;;;;;;20.30;9.40;;;;;;;1.70;59.62;102987.62;1870347;76;21042;-57
2022/03/18 10:58:04;;;;;;;16.48;6.45;;;;;;;1.60;59.45;102989.43;1889630;76;21575;-57
2022/03/18 11:00:34;;;;;;;15.72;7.17;;;;;;;1.45;59.46;102986.77;1889546;76;21108;-60
2022/03/18 11:03:05;;;;;;;14.05;7.10;;;;;;;1.32;59.59;102996.26;1889522;76;21120;-60
2022/03/18 11:05:36;;;;;;;6.47;4.17;;;;;;;1.28;59.71;102985.31;1889486;76;21045;-62
2022/03/18 11:08:07;;;;;;;20.65;8.40;;;;;;;1.29;59.48;102987.05;1888978;76;21112;-61
2022/03/18 11:13:28;;;;;;;14.20;7.95;;;;;;;1.45;58.88;102983.30;1886146;76;21053;-59
2022/03/18 11:15:58;;;;;;;14.98;7.83;;;;;;;1.49;58.91;102978.67;1889530;76;21100;-60
2022/03/18 11:18:31;;;;;;;14.87;6.28;;;;;;;1.54;58.68;102980.59;1889531;76;21014;-61
2022/03/18 11:21:03;;;;;;;11.40;6.20;;;;;;;1.54;57.90;102984.48;1889147;76;21125;-61
2022/03/18 11:23:34;;;;;;;14.30;7.92;;;;;;;1.45;57.71;102978.98;1889737;76;21065;-60
2022/03/18 11:26:03;;;;;;;8.75;4.15;;;;;;;1.43;57.36;102975.45;1889660;76;21108;-61
2022/03/18 11:28:32;;;;;;;11.73;5.92;;;;;;;1.47;57.18;102982.51;1889514;76;21484;-60
2022/03/18 11:31:03;;;;;;;15.40;5.58;;;;;;;1.58;57.21;102980.70;1889417;76;21081;-61
2022/03/18 11:33:37;;;;;;;9.55;5.35;;;;;;;1.66;56.93;102981.83;1889445;76;21050;-61
2022/03/18 11:36:09;;;;;;;10.13;7.17;;;;;;;1.71;56.93;102981.58;1889654;76;21046;-60
2022/03/18 11:38:57;;;;;;;13.88;6.53;;;;;;;1.62;56.17;102977.38;1897683;74;21074;-61
2022/03/18 11:41:28;;;;;;;15.63;7.12;;;;;;;1.56;56.66;102981.95;1923827;74;21124;-61
2022/03/18 11:43:57;;;;;;;12.47;6.55;;;;;;;1.58;57.11;102985.91;1923841;74;21120;-61
2022/03/18 11:46:27;;;;;;;14.30;7.42;;;;;;;1.60;57.09;102979.04;1923827;74;21501;-61
2022/03/18 11:49:08;;;;;;;14.83;7.35;;;;;;;1.58;56.92;102980.70;1923957;74;21038;-61
2022/03/18 11:51:42;;;;;;;14.00;7.92;;;;;;;1.58;57.04;102978.11;1923820;74;21019;-61